Time;durP1;ratioP1;P1;durP2;ratioP2;P2;SDS_P1;SDS_P2;PMS_P1;PMS_P2;Temp;Humidity;BMP_temperature;BMP_pressure;BME280_temperature;BME280_humidity;BME280_pressure;Samples;Min_cycle;Max_cycle;Signal;HPM_P1;HPM_P2
2022/08/30 00:01:05;;;;;;;11.40;7.75;;;15.00;99.90;;;;;;2124167;27;20039;-75
2022/08/30 00:02:05;;;;;;;11.70;8.10;;;15.00;99.90;;;;;;2123156;27;20023;-75
2022/08/30 00:03:09;;;;;;;10.25;7.32;;;14.90;99.90;;;;;;2114926;28;20082;-74
2022/08/30 00:04:09;;;;;;;10.07;7.82;;;15.00;99.90;;;;;;2114850;28;20032;-76
2022/08/30 00:05:10;;;;;;;9.18;7.65;;;14.90;99.90;;;;;;2121898;28;20023;-76
2022/08/30 00:06:14;;;;;;;10.07;7.53;;;14.90;99.90;;;;;;2122956;27;20471;-75
2022/08/30 00:07:15;;;;;;;11.20;7.90;;;14.90;99.90;;;;;;2122579;27;20056;-76
2022/08/30 00:08:15;;;;;;;11.25;8.10;;;14.90;99.90;;;;;;2123460;27;20051;-74
2022/08/30 00:09:16;;;;;;;10.02;8.32;;;14.90;99.90;;;;;;2123864;27;20031;-75
2022/08/30 00:10:17;;;;;;;9.93;7.78;;;14.90;99.90;;;;;;2115123;28;20020;-75
2022/08/30 00:11:24;;;;;;;11.60;8.30;;;14.90;99.90;;;;;;2115596;28;20019;-75
2022/08/30 00:12:25;;;;;;;9.13;7.53;;;14.80;99.90;;;;;;2124100;27;20157;-75
2022/08/30 00:13:26;;;;;;;10.73;7.93;;;14.80;99.90;;;;;;2124718;27;20023;-75
2022/08/30 00:14:27;;;;;;;9.52;8.40;;;14.80;99.90;;;;;;2124990;27;20031;-75
2022/08/30 00:15:28;;;;;;;11.50;8.00;;;14.80;99.90;;;;;;2125447;27;20058;-75
2022/08/30 00:16:29;;;;;;;10.32;7.57;;;14.80;99.90;;;;;;2125180;27;20038;-75
2022/08/30 00:17:30;;;;;;;10.30;8.20;;;14.80;99.90;;;;;;2125159;27;20019;-76
2022/08/30 00:18:30;;;;;;;9.45;7.57;;;14.80;99.90;;;;;;2125358;27;20123;-75
2022/08/30 00:19:31;;;;;;;9.95;7.70;;;14.80;99.90;;;;;;2124954;27;20110;-76
2022/08/30 00:20:33;;;;;;;10.32;7.28;;;14.80;99.90;;;;;;2124713;27;20023;-75
2022/08/30 00:21:34;;;;;;;11.80;7.40;;;14.80;99.90;;;;;;2124254;27;20023;-75
2022/08/30 00:22:34;;;;;;;11.00;7.68;;;14.80;99.90;;;;;;2125202;27;20047;-74
2022/08/30 00:23:36;;;;;;;10.50;7.40;;;14.70;99.90;;;;;;2125003;27;20107;-74
2022/08/30 00:24:37;;;;;;;10.65;7.35;;;14.70;99.90;;;;;;2125332;27;20027;-74
2022/08/30 00:25:38;;;;;;;11.80;7.50;;;14.70;99.90;;;;;;2124001;27;20095;-74
2022/08/30 00:26:39;;;;;;;10.38;7.53;;;14.70;99.90;;;;;;2123670;27;20025;-75
2022/08/30 00:27:40;;;;;;;12.48;7.72;;;14.70;99.90;;;;;;2123455;27;20819;-75
2022/08/30 00:28:41;;;;;;;9.15;7.28;;;14.70;99.90;;;;;;2115391;28;20564;-75
2022/08/30 00:29:42;;;;;;;8.98;7.35;;;14.70;99.90;;;;;;2124029;27;20020;-73
2022/08/30 00:30:43;;;;;;;10.20;7.10;;;14.70;99.90;;;;;;2124321;27;20460;-72
2022/08/30 00:31:44;;;;;;;10.35;7.15;;;14.70;99.90;;;;;;2123750;27;20030;-75
2022/08/30 00:32:45;;;;;;;10.68;7.70;;;14.70;99.90;;;;;;2115351;28;20110;-74
2022/08/30 00:33:45;;;;;;;10.32;7.65;;;14.70;99.90;;;;;;2128338;27;20031;-75
2022/08/30 00:34:47;;;;;;;10.20;7.72;;;14.70;99.90;;;;;;2128183;27;20035;-74
2022/08/30 00:35:49;;;;;;;9.52;7.30;;;14.70;99.90;;;;;;2128253;27;20050;-75
2022/08/30 00:36:49;;;;;;;8.45;7.13;;;14.70;99.90;;;;;;2124421;27;20038;-75
2022/08/30 00:37:50;;;;;;;10.70;7.13;;;14.70;99.90;;;;;;2124250;27;20798;-74
2022/08/30 00:38:51;;;;;;;9.82;7.22;;;14.70;99.90;;;;;;2124463;27;20038;-75
2022/08/30 00:39:51;;;;;;;9.52;7.47;;;14.70;99.90;;;;;;2124176;27;20058;-74
2022/08/30 00:40:52;;;;;;;9.02;6.88;;;14.70;99.90;;;;;;2123450;27;20034;-74
2022/08/30 00:41:53;;;;;;;10.18;6.88;;;14.70;99.90;;;;;;2121357;27;20543;-73
2022/08/30 00:42:57;;;;;;;8.07;6.88;;;14.70;99.90;;;;;;2124975;27;20050;-73
2022/08/30 00:43:58;;;;;;;9.00;7.00;;;14.60;99.90;;;;;;2120341;27;20068;-75
2022/08/30 00:45:30;;;;;;;10.68;7.78;;;14.60;99.90;;;;;;2121367;27;20102;-75
2022/08/30 00:46:31;;;;;;;8.82;7.00;;;14.60;99.90;;;;;;2105287;27;20043;-74
2022/08/30 00:47:32;;;;;;;9.50;6.90;;;14.60;99.90;;;;;;2123248;27;20509;-74
2022/08/30 00:48:44;;;;;;;10.25;7.45;;;14.60;99.90;;;;;;2117739;27;20020;-76
2022/08/30 00:49:49;;;;;;;8.45;7.13;;;14.60;99.90;;;;;;2124579;27;20068;-75
2022/08/30 00:50:55;;;;;;;8.55;7.03;;;14.60;99.90;;;;;;2123057;27;20023;-76
2022/08/30 00:51:56;;;;;;;10.85;7.25;;;14.60;99.90;;;;;;2123116;27;20031;-75
2022/08/30 00:53:14;;;;;;;12.07;7.05;;;14.60;99.90;;;;;;2123072;27;20047;-74
2022/08/30 00:54:15;;;;;;;10.55;7.45;;;14.60;99.90;;;;;;2115183;27;20031;-76
2022/08/30 00:55:17;;;;;;;9.07;7.07;;;14.60;99.90;;;;;;2123227;27;20030;-75
2022/08/30 00:56:23;;;;;;;9.20;7.18;;;14.60;99.90;;;;;;2114224;28;20023;-75
2022/08/30 00:57:25;;;;;;;12.63;7.40;;;14.60;99.90;;;;;;2114643;27;20282;-75
2022/08/30 00:58:32;;;;;;;9.60;6.90;;;14.50;99.90;;;;;;2120548;27;20031;-75
2022/08/30 00:59:33;;;;;;;10.10;7.13;;;14.50;99.90;;;;;;2114193;27;20027;-75
2022/08/30 01:00:35;;;;;;;8.85;7.07;;;14.50;99.90;;;;;;2109899;28;20379;-75
2022/08/30 01:01:36;;;;;;;9.30;7.35;;;14.50;99.90;;;;;;2105548;28;20031;-75
2022/08/30 01:02:37;;;;;;;9.45;7.38;;;14.50;99.90;;;;;;2105082;28;20035;-75
2022/08/30 01:03:38;;;;;;;9.52;7.03;;;14.50;99.90;;;;;;2114384;28;20071;-74
2022/08/30 01:04:41;;;;;;;10.55;7.60;;;14.50;99.90;;;;;;2114676;28;20027;-75
2022/08/30 01:05:43;;;;;;;11.15;7.50;;;14.50;99.90;;;;;;2123221;27;20075;-74
2022/08/30 01:06:44;;;;;;;9.02;7.20;;;14.50;99.90;;;;;;2120937;27;20027;-75
2022/08/30 01:07:45;;;;;;;12.07;7.50;;;14.50;99.90;;;;;;2111469;28;20032;-75
2022/08/30 01:08:47;;;;;;;10.88;7.50;;;14.50;99.90;;;;;;2121042;27;20019;-75
2022/08/30 01:09:48;;;;;;;12.13;7.55;;;14.50;99.90;;;;;;2117966;27;20032;-75
2022/08/30 01:10:53;;;;;;;8.85;7.18;;;14.50;99.90;;;;;;2123296;27;20026;-75
2022/08/30 01:11:57;;;;;;;11.95;8.00;;;14.50;99.90;;;;;;2114712;27;20055;-75
2022/08/30 01:12:58;;;;;;;11.35;7.13;;;14.50;99.90;;;;;;2114931;27;20024;-75
2022/08/30 01:14:01;;;;;;;8.65;7.28;;;14.40;99.90;;;;;;2110400;28;20032;-75
2022/08/30 01:15:04;;;;;;;11.52;6.95;;;14.40;99.90;;;;;;2113762;27;20567;-75
2022/08/30 01:16:06;;;;;;;9.40;7.07;;;14.40;99.90;;;;;;2122884;27;20400;-75
2022/08/30 01:17:08;;;;;;;9.82;7.25;;;14.40;99.90;;;;;;2122765;27;20432;-74
2022/08/30 01:18:16;;;;;;;9.15;7.18;;;14.40;99.90;;;;;;2113868;27;20028;-75
2022/08/30 01:19:54;;;;;;;8.25;6.90;;;14.40;99.90;;;;;;2123683;27;20065;-75
2022/08/30 01:21:34;;;;;;;9.88;7.20;;;14.40;99.90;;;;;;2120670;27;20031;-74
2022/08/30 01:22:53;;;;;;;9.85;7.20;;;14.30;99.90;;;;;;2117796;27;20417;-74
2022/08/30 01:23:58;;;;;;;11.60;7.22;;;14.40;99.90;;;;;;2122550;27;20015;-74
2022/08/30 01:25:05;;;;;;;12.43;7.70;;;14.30;99.90;;;;;;2123398;27;20517;-75
2022/08/30 01:26:06;;;;;;;11.10;7.93;;;14.30;99.90;;;;;;2121058;27;20821;-74
2022/08/30 01:27:11;;;;;;;9.40;7.70;;;14.30;99.90;;;;;;2123006;27;20469;-74
2022/08/30 01:28:22;;;;;;;13.18;8.10;;;14.30;99.90;;;;;;2118246;27;20018;-74
2022/08/30 01:29:25;;;;;;;11.23;8.00;;;14.30;99.90;;;;;;2123105;27;20023;-75
2022/08/30 01:30:33;;;;;;;10.25;7.95;;;14.30;99.90;;;;;;2123508;27;20027;-75
2022/08/30 01:31:35;;;;;;;9.90;7.55;;;14.30;99.90;;;;;;2123195;27;20114;-74
2022/08/30 01:32:45;;;;;;;10.02;7.63;;;14.30;99.90;;;;;;2113615;28;20024;-75
2022/08/30 01:33:49;;;;;;;8.73;7.25;;;14.30;99.90;;;;;;2115601;27;20616;-73
2022/08/30 01:34:51;;;;;;;10.80;7.30;;;14.30;99.90;;;;;;2123560;27;20126;-73
2022/08/30 01:36:01;;;;;;;11.43;7.70;;;14.20;99.90;;;;;;2123855;27;20086;-73
2022/08/30 01:37:02;;;;;;;11.82;7.88;;;14.20;99.90;;;;;;2122956;27;20428;-74
2022/08/30 01:38:04;;;;;;;10.88;7.78;;;14.20;99.90;;;;;;2123025;27;20525;-74
2022/08/30 01:39:05;;;;;;;10.20;7.65;;;14.20;99.90;;;;;;2122402;27;20072;-73
2022/08/30 01:40:07;;;;;;;9.82;7.43;;;14.20;99.90;;;;;;2122801;27;20043;-73
2022/08/30 01:41:19;;;;;;;8.43;7.35;;;14.20;99.90;;;;;;2122880;27;20030;-74
2022/08/30 01:42:20;;;;;;;10.68;7.72;;;14.20;99.90;;;;;;2114511;27;20521;-74
2022/08/30 01:43:21;;;;;;;12.68;7.93;;;14.20;99.90;;;;;;2122169;27;20030;-74
2022/08/30 01:44:22;;;;;;;9.18;7.88;;;14.20;99.90;;;;;;2121750;27;20102;-74
2022/08/30 01:45:23;;;;;;;11.70;8.07;;;14.10;99.90;;;;;;2121932;27;20026;-74
2022/08/30 01:46:28;;;;;;;11.40;8.30;;;14.10;99.90;;;;;;2122229;27;20023;-73
2022/08/30 01:47:29;;;;;;;10.13;8.10;;;14.10;99.90;;;;;;2122724;27;20106;-74
2022/08/30 01:48:30;;;;;;;11.25;7.88;;;14.10;99.90;;;;;;2121728;27;20028;-75
2022/08/30 01:49:31;;;;;;;10.88;8.15;;;14.10;99.90;;;;;;2122252;27;20023;-74
2022/08/30 01:50:32;;;;;;;11.20;8.18;;;14.10;99.90;;;;;;2122376;27;20115;-74
2022/08/30 01:51:33;;;;;;;10.07;7.78;;;14.10;99.90;;;;;;2121869;27;20411;-74
2022/08/30 01:52:34;;;;;;;11.65;8.10;;;14.10;99.90;;;;;;2121948;27;20376;-74
2022/08/30 01:53:35;;;;;;;10.32;8.20;;;14.00;99.90;;;;;;2122218;27;20122;-74
2022/08/30 01:54:38;;;;;;;10.48;8.50;;;14.00;99.90;;;;;;2121900;27;20030;-74
2022/08/30 01:55:39;;;;;;;12.38;8.57;;;14.00;99.90;;;;;;2121667;27;20534;-74
2022/08/30 01:56:40;;;;;;;11.45;8.45;;;14.00;99.90;;;;;;2121460;27;20417;-73
2022/08/30 01:57:41;;;;;;;11.02;8.20;;;14.00;99.90;;;;;;2126994;27;20030;-74
2022/08/30 01:58:42;;;;;;;10.20;7.90;;;14.00;99.90;;;;;;2130421;27;20019;-74
2022/08/30 01:59:48;;;;;;;10.07;8.10;;;13.90;99.90;;;;;;2116749;27;20023;-73
2022/08/30 02:00:50;;;;;;;10.80;8.57;;;14.00;99.90;;;;;;2113849;27;20023;-74
2022/08/30 02:01:51;;;;;;;11.80;8.48;;;13.90;99.90;;;;;;2121191;27;20734;-73
2022/08/30 02:02:51;;;;;;;13.15;9.00;;;13.90;99.90;;;;;;2113152;28;20046;-74
2022/08/30 02:03:54;;;;;;;12.00;8.93;;;13.90;99.90;;;;;;2113358;28;20023;-74
2022/08/30 02:04:56;;;;;;;11.02;8.60;;;13.90;99.90;;;;;;2121745;27;20023;-74
2022/08/30 02:05:56;;;;;;;10.30;8.57;;;13.90;99.90;;;;;;2122340;27;20027;-74
2022/08/30 02:06:57;;;;;;;12.90;8.85;;;13.90;99.90;;;;;;2122236;27;20073;-74
2022/08/30 02:07:58;;;;;;;10.25;8.52;;;13.90;99.90;;;;;;2128803;27;20563;-75
2022/08/30 02:08:59;;;;;;;10.20;8.80;;;13.90;99.90;;;;;;2123119;27;20551;-72
2022/08/30 02:10:00;;;;;;;11.77;9.00;;;13.90;99.90;;;;;;2119820;27;20015;-73
2022/08/30 02:11:01;;;;;;;11.98;9.02;;;13.80;99.90;;;;;;2121705;27;20084;-73
2022/08/30 02:12:05;;;;;;;11.77;8.98;;;13.90;99.90;;;;;;2121274;27;20523;-74
2022/08/30 02:13:05;;;;;;;12.05;8.60;;;13.80;99.90;;;;;;2130294;27;20038;-73
2022/08/30 02:14:06;;;;;;;9.75;8.57;;;13.90;99.90;;;;;;2130284;27;20741;-73
2022/08/30 02:15:08;;;;;;;11.88;8.88;;;13.80;99.90;;;;;;2130366;27;20035;-73
2022/08/30 02:16:12;;;;;;;13.65;9.13;;;13.80;99.90;;;;;;2130140;27;20030;-74
2022/08/30 02:17:16;;;;;;;12.00;9.27;;;13.80;99.90;;;;;;2130848;27;20030;-74
2022/08/30 02:18:16;;;;;;;9.40;8.30;;;13.80;99.90;;;;;;2130317;27;20477;-74
2022/08/30 02:19:17;;;;;;;11.95;8.77;;;13.80;99.90;;;;;;2121754;27;20026;-73
2022/08/30 02:20:18;;;;;;;12.93;8.80;;;13.80;99.90;;;;;;2121643;27;20031;-74
2022/08/30 02:21:19;;;;;;;11.98;8.55;;;13.80;99.90;;;;;;2130618;27;20027;-74
2022/08/30 02:22:20;;;;;;;10.13;8.38;;;13.80;99.90;;;;;;2131242;27;20019;-73
2022/08/30 02:23:21;;;;;;;10.32;8.23;;;13.80;99.90;;;;;;2121507;27;20408;-74
2022/08/30 02:24:22;;;;;;;12.02;8.48;;;13.70;99.90;;;;;;2121775;27;20072;-74
2022/08/30 02:25:22;;;;;;;10.45;8.48;;;13.80;99.90;;;;;;2130855;27;20029;-75
2022/08/30 02:26:23;;;;;;;12.20;8.93;;;13.80;99.90;;;;;;2130818;27;20616;-74
2022/08/30 02:27:25;;;;;;;11.27;9.00;;;13.70;99.90;;;;;;2130023;27;20048;-75
2022/08/30 02:28:26;;;;;;;9.85;8.40;;;13.70;99.90;;;;;;2129798;27;20058;-74
2022/08/30 02:29:27;;;;;;;10.63;7.95;;;13.70;99.90;;;;;;2130778;27;20022;-73
2022/08/30 02:30:27;;;;;;;10.10;8.32;;;13.70;99.90;;;;;;2129966;27;20037;-73
2022/08/30 02:31:28;;;;;;;10.38;8.70;;;13.70;99.90;;;;;;2130943;27;20034;-73
2022/08/30 02:32:28;;;;;;;10.20;8.13;;;13.70;99.90;;;;;;2130490;27;20033;-74
2022/08/30 02:33:30;;;;;;;10.63;8.50;;;13.70;99.90;;;;;;2130976;27;20066;-73
2022/08/30 02:34:31;;;;;;;11.45;8.40;;;13.70;99.90;;;;;;2121620;27;20072;-75
2022/08/30 02:35:31;;;;;;;10.65;8.40;;;13.70;99.90;;;;;;2121730;27;20035;-73
2022/08/30 02:36:32;;;;;;;9.23;8.20;;;13.70;99.90;;;;;;2130945;27;20832;-73
2022/08/30 02:37:33;;;;;;;10.60;8.40;;;13.70;99.90;;;;;;2130355;27;20830;-73
2022/08/30 02:38:34;;;;;;;11.20;8.20;;;13.70;99.90;;;;;;2130084;27;20026;-73
2022/08/30 02:39:35;;;;;;;10.13;7.85;;;13.70;99.90;;;;;;2130851;27;20022;-74
2022/08/30 02:40:36;;;;;;;8.98;7.65;;;13.70;99.90;;;;;;2131003;27;20045;-73
2022/08/30 02:41:37;;;;;;;11.18;8.32;;;13.70;99.90;;;;;;2130678;27;20423;-73
2022/08/30 02:42:40;;;;;;;9.85;8.10;;;13.70;99.90;;;;;;2129738;27;20087;-73
2022/08/30 02:43:41;;;;;;;10.15;8.07;;;13.70;99.90;;;;;;2130207;27;20106;-73
2022/08/30 02:44:42;;;;;;;10.60;8.07;;;13.70;99.90;;;;;;2130987;27;20027;-73
2022/08/30 02:45:42;;;;;;;10.35;8.02;;;13.70;99.90;;;;;;2130233;27;20560;-73
2022/08/30 02:46:44;;;;;;;10.93;8.07;;;13.70;99.90;;;;;;2130009;27;20071;-73
2022/08/30 02:47:44;;;;;;;11.18;8.23;;;13.70;99.90;;;;;;2130258;27;20050;-74
2022/08/30 02:48:45;;;;;;;11.25;8.23;;;13.70;99.90;;;;;;2130726;27;20567;-73
2022/08/30 02:49:46;;;;;;;11.93;7.88;;;13.70;99.90;;;;;;2130568;27;20023;-73
2022/08/30 02:50:49;;;;;;;9.82;7.97;;;13.70;99.90;;;;;;2130830;27;20369;-74
2022/08/30 02:51:50;;;;;;;10.48;8.27;;;13.70;99.90;;;;;;2130342;27;20126;-74
2022/08/30 02:52:51;;;;;;;10.73;7.90;;;13.70;99.90;;;;;;2130889;27;20038;-74
2022/08/30 02:53:52;;;;;;;11.35;8.40;;;13.70;99.90;;;;;;2130180;27;20027;-74
2022/08/30 02:54:53;;;;;;;11.07;8.13;;;13.70;99.90;;;;;;2130148;27;20830;-74
2022/08/30 02:55:54;;;;;;;10.52;8.43;;;13.70;99.90;;;;;;2130515;27;20046;-75
2022/08/30 02:56:56;;;;;;;11.00;8.20;;;13.70;99.90;;;;;;2130853;27;20058;-75
2022/08/30 02:57:56;;;;;;;12.15;8.35;;;13.70;99.90;;;;;;2121438;27;20060;-74
2022/08/30 02:58:57;;;;;;;8.95;7.80;;;13.70;99.90;;;;;;2112624;28;20027;-74
2022/08/30 02:59:58;;;;;;;10.55;7.88;;;13.70;99.90;;;;;;2121866;27;20035;-75
2022/08/30 03:01:00;;;;;;;11.40;8.20;;;13.60;99.90;;;;;;2131234;27;20026;-75
2022/08/30 03:02:01;;;;;;;9.07;7.68;;;13.70;99.90;;;;;;2130475;27;20034;-75
2022/08/30 03:03:06;;;;;;;10.75;7.82;;;13.60;99.90;;;;;;2130763;27;20061;-74
2022/08/30 03:04:08;;;;;;;10.57;7.85;;;13.70;99.90;;;;;;2131442;27;20036;-74
2022/08/30 03:05:11;;;;;;;10.13;7.78;;;13.70;99.90;;;;;;2130673;27;20027;-75
2022/08/30 03:06:13;;;;;;;9.23;7.45;;;13.70;99.90;;;;;;2122370;27;20535;-74
2022/08/30 03:07:15;;;;;;;9.45;7.85;;;13.60;99.90;;;;;;2131765;27;20019;-74
2022/08/30 03:08:15;;;;;;;10.65;8.00;;;13.60;99.90;;;;;;2132080;27;20084;-74
2022/08/30 03:09:16;;;;;;;12.40;8.25;;;13.60;99.90;;;;;;2123440;27;20627;-76
2022/08/30 03:10:17;;;;;;;10.82;8.35;;;13.60;99.90;;;;;;2130864;27;20023;-74
2022/08/30 03:11:18;;;;;;;10.13;8.60;;;13.60;99.90;;;;;;2130434;27;20047;-75
2022/08/30 03:12:18;;;;;;;10.80;8.30;;;13.60;99.90;;;;;;2121912;28;20493;-75
2022/08/30 03:13:19;;;;;;;10.70;8.10;;;13.60;99.90;;;;;;2118358;28;20536;-74
2022/08/30 03:14:20;;;;;;;11.40;8.23;;;13.60;99.90;;;;;;2112908;28;20011;-74
2022/08/30 03:15:24;;;;;;;9.45;8.25;;;13.60;99.90;;;;;;2106016;28;20062;-73
2022/08/30 03:16:24;;;;;;;11.13;8.05;;;13.60;99.90;;;;;;2113032;28;20058;-74
2022/08/30 03:17:25;;;;;;;11.10;7.90;;;13.60;99.90;;;;;;2113278;28;20674;-74
2022/08/30 03:18:27;;;;;;;10.88;8.13;;;13.60;99.90;;;;;;2121877;28;20059;-74
2022/08/30 03:19:28;;;;;;;9.50;7.97;;;13.60;99.90;;;;;;2122008;28;20030;-75
2022/08/30 03:20:29;;;;;;;10.98;8.00;;;13.60;99.90;;;;;;2122204;27;20061;-74
2022/08/30 03:21:29;;;;;;;10.43;7.97;;;13.60;99.90;;;;;;2121733;28;20027;-74
2022/08/30 03:22:31;;;;;;;10.55;8.25;;;13.60;99.90;;;;;;2121760;28;20031;-74
2022/08/30 03:23:31;;;;;;;9.73;8.38;;;13.60;99.90;;;;;;2121683;28;20128;-74
2022/08/30 03:24:33;;;;;;;10.65;8.23;;;13.60;99.90;;;;;;2122025;28;20042;-75
2022/08/30 03:25:38;;;;;;;8.32;7.50;;;13.60;99.90;;;;;;2122635;28;20115;-75
2022/08/30 03:26:39;;;;;;;10.10;7.78;;;13.60;99.90;;;;;;2122532;28;20118;-75
2022/08/30 03:27:40;;;;;;;10.75;7.78;;;13.60;99.90;;;;;;2123730;27;20038;-74
2022/08/30 03:28:42;;;;;;;9.07;7.53;;;13.60;99.90;;;;;;2123309;28;20023;-73
2022/08/30 03:29:43;;;;;;;8.55;7.43;;;13.60;99.90;;;;;;2124217;28;20047;-75
2022/08/30 03:30:44;;;;;;;10.65;8.05;;;13.60;99.90;;;;;;2123120;28;20046;-73
2022/08/30 03:31:45;;;;;;;9.35;8.35;;;13.60;99.90;;;;;;2122562;28;20030;-75
2022/08/30 03:32:49;;;;;;;10.73;7.90;;;13.60;99.90;;;;;;2114179;28;20035;-75
2022/08/30 03:33:49;;;;;;;9.80;7.97;;;13.60;99.90;;;;;;2106307;28;20040;-73
2022/08/30 03:34:50;;;;;;;9.07;7.82;;;13.50;99.90;;;;;;2122542;28;20502;-74
2022/08/30 03:36:00;;;;;;;9.82;7.97;;;13.60;99.90;;;;;;2123489;28;20031;-74
2022/08/30 03:37:00;;;;;;;10.93;8.73;;;13.60;99.90;;;;;;2122814;28;20488;-75
2022/08/30 03:38:11;;;;;;;11.52;8.40;;;13.50;99.90;;;;;;2122570;28;20070;-77
2022/08/30 03:39:11;;;;;;;11.10;8.13;;;13.50;99.90;;;;;;2123613;28;20031;-74
2022/08/30 03:40:15;;;;;;;10.43;8.23;;;13.50;99.90;;;;;;2122767;28;20432;-74
2022/08/30 03:41:16;;;;;;;10.23;8.10;;;13.50;99.90;;;;;;2123314;27;20137;-75
2022/08/30 03:42:20;;;;;;;10.93;8.80;;;13.50;99.90;;;;;;2123590;27;20841;-74
2022/08/30 03:43:21;;;;;;;10.60;8.38;;;13.50;99.90;;;;;;2124051;27;20023;-75
2022/08/30 03:44:22;;;;;;;9.73;8.27;;;13.50;99.90;;;;;;2124761;27;20068;-76
2022/08/30 03:45:23;;;;;;;10.45;8.05;;;13.50;99.90;;;;;;2124997;27;20058;-73
2022/08/30 03:46:24;;;;;;;10.23;8.32;;;13.50;99.90;;;;;;2124361;27;20046;-75
2022/08/30 03:47:24;;;;;;;9.18;7.68;;;13.50;99.90;;;;;;2124240;27;20073;-74
2022/08/30 03:48:28;;;;;;;11.48;8.38;;;13.40;99.90;;;;;;2125076;27;20030;-75
2022/08/30 03:49:29;;;;;;;11.65;7.88;;;13.50;99.90;;;;;;2124612;27;20058;-73
2022/08/30 03:50:30;;;;;;;9.77;7.93;;;13.40;99.90;;;;;;2124930;27;20023;-73
2022/08/30 03:51:31;;;;;;;10.48;8.25;;;13.50;99.90;;;;;;2123524;27;20080;-73
2022/08/30 03:52:32;;;;;;;10.88;7.85;;;13.40;99.90;;;;;;2114477;27;20051;-75
2022/08/30 03:53:33;;;;;;;9.32;7.57;;;13.40;99.90;;;;;;2123209;27;20033;-75
2022/08/30 03:54:34;;;;;;;9.95;8.05;;;13.40;99.90;;;;;;2123853;27;20381;-75
2022/08/30 03:55:35;;;;;;;9.52;8.27;;;13.40;99.90;;;;;;2124587;27;20082;-74
2022/08/30 03:56:36;;;;;;;9.65;8.10;;;13.40;99.90;;;;;;2123119;27;20039;-73
2022/08/30 03:57:38;;;;;;;10.27;8.20;;;13.40;99.90;;;;;;2123528;27;20016;-75
2022/08/30 03:58:39;;;;;;;10.15;8.20;;;13.40;99.90;;;;;;2123120;27;20027;-75
2022/08/30 03:59:40;;;;;;;10.88;8.35;;;13.40;99.90;;;;;;2123272;27;20493;-76
2022/08/30 04:00:44;;;;;;;11.82;8.32;;;13.40;99.90;;;;;;2124033;27;20106;-76
2022/08/30 04:01:46;;;;;;;11.73;8.65;;;13.40;99.90;;;;;;2123395;27;20042;-75
2022/08/30 04:02:47;;;;;;;10.73;8.63;;;13.40;99.90;;;;;;2114861;27;20051;-75
2022/08/30 04:03:48;;;;;;;14.00;8.45;;;13.40;99.90;;;;;;2123216;27;20034;-75
2022/08/30 04:04:49;;;;;;;12.00;8.60;;;13.40;99.90;;;;;;2123966;27;20035;-74
2022/08/30 04:05:50;;;;;;;10.13;8.45;;;13.40;99.90;;;;;;2123557;27;20035;-75
2022/08/30 04:06:51;;;;;;;12.32;9.43;;;13.40;99.90;;;;;;2123787;27;20110;-75
2022/08/30 04:07:52;;;;;;;12.20;9.10;;;13.40;99.90;;;;;;2123675;27;20594;-75
2022/08/30 04:08:53;;;;;;;10.43;8.88;;;13.40;99.90;;;;;;2123203;27;20092;-75
2022/08/30 04:09:54;;;;;;;12.25;9.05;;;13.40;99.90;;;;;;2123670;27;20729;-74
2022/08/30 04:10:55;;;;;;;11.70;9.27;;;13.40;99.90;;;;;;2123309;27;20039;-75
2022/08/30 04:11:56;;;;;;;11.60;8.60;;;13.30;99.90;;;;;;2115391;28;20081;-75
2022/08/30 04:12:56;;;;;;;10.00;8.30;;;13.40;99.90;;;;;;2115189;28;20035;-75
2022/08/30 04:13:57;;;;;;;11.57;8.50;;;13.30;99.90;;;;;;2123768;27;20082;-75
2022/08/30 04:14:58;;;;;;;9.23;7.85;;;13.30;99.90;;;;;;2123480;27;20072;-75
2022/08/30 04:15:58;;;;;;;9.13;7.60;;;13.40;99.90;;;;;;2123917;27;20847;-75
2022/08/30 04:16:59;;;;;;;9.25;7.88;;;13.40;99.90;;;;;;2124442;27;20074;-75
2022/08/30 04:18:00;;;;;;;11.50;8.15;;;13.30;99.90;;;;;;2123684;27;20026;-75
2022/08/30 04:19:01;;;;;;;10.73;8.27;;;13.30;99.90;;;;;;2124118;27;20091;-75
2022/08/30 04:20:02;;;;;;;10.25;8.55;;;13.40;99.90;;;;;;2123200;27;20148;-75
2022/08/30 04:21:03;;;;;;;11.13;8.40;;;13.30;99.90;;;;;;2123951;27;20112;-75
2022/08/30 04:22:04;;;;;;;11.95;7.90;;;13.40;99.90;;;;;;2124643;27;20033;-75
2022/08/30 04:23:08;;;;;;;9.75;7.97;;;13.30;99.90;;;;;;2124345;27;20034;-75
2022/08/30 04:24:10;;;;;;;11.35;7.80;;;13.30;99.90;;;;;;2124257;27;20023;-74
2022/08/30 04:25:20;;;;;;;10.38;7.85;;;13.30;99.90;;;;;;2124556;27;20011;-76
2022/08/30 04:26:22;;;;;;;10.93;8.00;;;13.30;99.90;;;;;;2123727;27;20023;-75
2022/08/30 04:27:23;;;;;;;9.77;8.18;;;13.30;99.90;;;;;;2115420;28;20028;-74
2022/08/30 04:28:24;;;;;;;9.57;7.90;;;13.30;99.90;;;;;;2123753;27;20031;-77
2022/08/30 04:29:28;;;;;;;9.73;8.20;;;13.30;99.90;;;;;;2124650;27;20031;-75
2022/08/30 04:30:29;;;;;;;11.52;8.32;;;13.30;99.90;;;;;;2123757;27;20031;-73
2022/08/30 04:31:33;;;;;;;13.40;8.27;;;13.30;99.90;;;;;;2123256;27;20030;-73
2022/08/30 04:32:34;;;;;;;10.90;8.57;;;13.40;99.90;;;;;;2123685;27;20030;-74
2022/08/30 04:33:36;;;;;;;11.20;8.30;;;13.40;99.90;;;;;;2123988;27;20118;-74
2022/08/30 04:34:37;;;;;;;10.60;8.38;;;13.30;99.90;;;;;;2124076;27;20088;-74
2022/08/30 04:35:41;;;;;;;10.65;8.23;;;13.40;99.90;;;;;;2123700;27;20159;-74
2022/08/30 04:36:42;;;;;;;11.65;8.63;;;13.30;99.90;;;;;;2123868;27;20038;-74
2022/08/30 04:37:42;;;;;;;11.95;8.45;;;13.40;99.90;;;;;;2123695;27;20512;-74
2022/08/30 04:38:43;;;;;;;10.20;8.10;;;13.40;99.90;;;;;;2123443;27;20031;-74
2022/08/30 04:39:45;;;;;;;11.30;8.32;;;13.40;99.90;;;;;;2123268;27;20035;-76
2022/08/30 04:40:49;;;;;;;11.25;7.97;;;13.40;99.90;;;;;;2122791;27;20477;-74
2022/08/30 04:41:50;;;;;;;11.02;8.65;;;13.40;99.90;;;;;;2122525;27;20027;-74
2022/08/30 04:42:53;;;;;;;12.80;8.40;;;13.40;99.90;;;;;;2123285;27;20031;-74
2022/08/30 04:43:53;;;;;;;10.00;7.97;;;13.40;99.90;;;;;;2122418;27;20015;-74
2022/08/30 04:44:54;;;;;;;10.50;8.27;;;13.40;99.90;;;;;;2122559;27;20080;-74
2022/08/30 04:46:04;;;;;;;10.95;8.45;;;13.50;99.90;;;;;;2124231;27;20023;-75
2022/08/30 04:47:08;;;;;;;10.73;8.68;;;13.50;99.90;;;;;;2122942;27;20031;-75
2022/08/30 04:48:09;;;;;;;10.13;8.30;;;13.50;99.90;;;;;;2113923;27;20575;-75
2022/08/30 04:49:10;;;;;;;10.10;8.10;;;13.50;99.90;;;;;;2122420;27;20023;-75
2022/08/30 04:50:15;;;;;;;9.73;7.47;;;13.60;99.90;;;;;;2114639;28;20035;-75
2022/08/30 04:51:16;;;;;;;11.68;8.18;;;13.60;99.90;;;;;;2115085;28;20016;-74
2022/08/30 04:52:18;;;;;;;11.85;8.00;;;13.60;99.90;;;;;;2122236;27;20438;-74
2022/08/30 04:53:19;;;;;;;10.50;8.18;;;13.70;99.90;;;;;;2122380;27;20041;-74
2022/08/30 04:54:19;;;;;;;8.63;7.72;;;13.70;99.90;;;;;;2126146;27;20481;-74
2022/08/30 04:55:20;;;;;;;12.55;8.00;;;13.70;99.90;;;;;;2128398;27;20030;-74
2022/08/30 04:56:23;;;;;;;10.35;7.50;;;13.70;99.90;;;;;;2127684;27;20039;-74
2022/08/30 04:57:25;;;;;;;10.15;8.23;;;13.70;99.90;;;;;;2118905;28;20038;-74
2022/08/30 04:58:26;;;;;;;10.57;8.27;;;13.80;99.90;;;;;;2119046;28;20123;-74
2022/08/30 04:59:27;;;;;;;9.98;7.65;;;13.80;99.90;;;;;;2128515;27;20019;-75
2022/08/30 05:00:28;;;;;;;9.68;7.68;;;13.80;99.90;;;;;;2129171;27;20023;-73
2022/08/30 05:01:32;;;;;;;8.82;7.40;;;13.90;99.90;;;;;;2129695;27;20095;-74
2022/08/30 05:02:33;;;;;;;12.35;8.50;;;13.90;99.90;;;;;;2130367;27;20023;-74
2022/08/30 05:03:33;;;;;;;9.02;7.40;;;13.90;99.90;;;;;;2128275;27;20597;-74
2022/08/30 05:04:35;;;;;;;8.57;7.50;;;13.90;99.90;;;;;;2128929;27;20103;-74
2022/08/30 05:05:39;;;;;;;10.57;7.88;;;14.00;99.90;;;;;;2129263;27;20036;-74
2022/08/30 05:06:40;;;;;;;9.82;8.32;;;14.00;99.90;;;;;;2128460;27;20170;-74
2022/08/30 05:07:40;;;;;;;10.57;8.85;;;14.10;99.90;;;;;;2127500;27;20019;-74
2022/08/30 05:08:41;;;;;;;11.70;8.73;;;14.10;99.90;;;;;;2124074;27;20072;-74
2022/08/30 05:09:42;;;;;;;10.90;8.38;;;14.20;99.90;;;;;;2124206;27;20556;-74
2022/08/30 05:10:45;;;;;;;9.05;7.50;;;14.30;99.90;;;;;;2123498;27;20023;-74
2022/08/30 05:11:46;;;;;;;9.35;7.78;;;14.40;99.90;;;;;;2122614;27;20065;-74
2022/08/30 05:12:47;;;;;;;8.93;7.40;;;14.60;99.90;;;;;;2122689;27;20034;-74
2022/08/30 05:13:48;;;;;;;8.85;7.10;;;14.70;99.90;;;;;;2122668;27;20046;-74
2022/08/30 05:14:50;;;;;;;10.13;7.30;;;14.90;99.90;;;;;;2122489;27;20079;-74
2022/08/30 05:15:50;;;;;;;9.95;7.03;;;15.10;99.90;;;;;;2122771;27;20133;-74
2022/08/30 05:16:51;;;;;;;10.52;7.45;;;15.20;99.90;;;;;;2123034;27;20076;-74
2022/08/30 05:17:51;;;;;;;8.00;6.60;;;15.40;99.90;;;;;;2122745;27;20373;-74
2022/08/30 05:18:53;;;;;;;10.13;7.10;;;15.50;99.90;;;;;;2122835;27;20030;-74
2022/08/30 05:19:54;;;;;;;9.32;6.60;;;15.70;99.90;;;;;;2122931;27;20110;-74
2022/08/30 05:21:11;;;;;;;11.70;6.68;;;15.80;99.90;;;;;;2122118;27;20034;-74
2022/08/30 05:22:12;;;;;;;7.70;6.30;;;16.00;99.90;;;;;;2122175;27;20060;-75